ポルト・アレグレ の空港の天気 - METARとTAF

ポルト・アレグレ国際空港 ( SBPA / POA ) - ブラジル リオグランデ・ド・スル州ポルト・アレグレ
飛行場実況気象(Metar)
観測時間01/19 13:00 BRST (01/19 15:00 UTC)
風向・風速南東 6m/s
視程10km以上
天気現象
全天の8割程度の雲 雲底高度 610m
全天の8割程度の雲 雲底高度 2740m
気温23℃
湿度73%
気圧1017hPa
METARSBPA 191500Z 13011KT 100V160 9999 BKN020 BKN090 23/18 Q1017
過去の天気等 Google飛行場航空写真 Wunderground天気予報

過去48時間のMETAR

飛行場予報(TAF)
発表時間: 1/19 06:45 BRST (1/19 08:45 UTC)
予報対象時間: 19日10時 BRST ~ 20日10時 BRST
風向・風速北北西 3m/s
視程10km以上
全天の4割程度の雲 雲底高度 300m
全天の8割程度の雲 雲底高度 760m
19日11時 BRST ~ 19日13時 BRST に徐々に
風向・風速南南東 4m/s
全天の4割程度の雲 雲底高度 760m
少しの塔状積雲 雲底高度 910m
19日14時 BRST ~ 19日19時 BRST に 確率 40% で一時的に
天気現象周辺でしゅう雨
全天の8割程度の雲 雲底高度 760m
少しの塔状積雲 雲底高度 910m
19日20時 BRST ~ 19日22時 BRST に徐々に
全天の8割程度の雲 雲底高度 370m
TAF SBPA 190845Z 1912/2012 33006KT 9999 SCT010 BKN025 TX26/1917Z TN20 /2008Z
BECMG 1913/1915 16008KT SCT025 FEW030TCU
PROB40 TEMPO 1916/1921 VCSH BKN025 FEW030TCU
BECMG 1922/1924 BKN012 RMK PEB